Time;durP1;ratioP1;P1;durP2;ratioP2;P2;SDS_P1;SDS_P2;PMS_P1;PMS_P2;Temp;Humidity;BMP_temperature;BMP_pressure;BME280_temperature;BME280_humidity;BME280_pressure;Samples;Min_cycle;Max_cycle;Signal;HPM_P1;HPM_P2
2021/12/16 00:04:09;;;;;;;142.27;47.67;;;3.70;99.90;;;;;;4975551;28;20041;-85
2021/12/16 00:09:14;;;;;;;147.00;49.50;;;3.60;99.90;;;;;;4993531;28;20042;-84
2021/12/16 00:34:00;;;;;;;148.15;51.38;;;3.70;99.90;;;;;;4975764;28;20031;-84
2021/12/16 00:36:51;;;;;;;139.23;49.30;;;3.60;99.90;;;;;;4993487;28;20048;-85
2021/12/16 00:39:30;;;;;;;135.52;48.25;;;3.60;99.90;;;;;;4960225;28;20516;-85
2021/12/16 00:42:03;;;;;;;153.18;52.72;;;3.70;99.90;;;;;;4960744;28;20038;-86
2021/12/16 00:49:40;;;;;;;137.02;51.35;;;3.60;99.90;;;;;;4976612;28;20085;-86
2021/12/16 00:55:16;;;;;;;133.57;47.83;;;3.60;99.90;;;;;;4994156;28;20038;-85
2021/12/16 00:57:45;;;;;;;142.30;51.03;;;3.70;99.90;;;;;;4960584;28;20038;-85
2021/12/16 01:00:15;;;;;;;126.03;48.58;;;3.70;99.90;;;;;;4960700;28;20402;-85
2021/12/16 01:33:55;;;;;;;155.38;53.70;;;3.70;99.90;;;;;;4979281;28;20402;-85
2021/12/16 01:55:34;;;;;;;137.25;48.38;;;3.60;99.90;;;;;;4968420;28;20043;-85
2021/12/16 02:03:42;;;;;;;140.32;49.00;;;3.70;99.90;;;;;;4978466;28;20034;-85
2021/12/16 02:08:41;;;;;;;130.43;49.35;;;3.60;99.90;;;;;;4978295;28;20045;-85
2021/12/16 02:27:20;;;;;;;134.48;46.25;;;3.60;99.90;;;;;;4977672;28;20034;-85
2021/12/16 02:37:22;;;;;;;132.00;48.75;;;3.60;99.90;;;;;;4977773;28;20073;-85
2021/12/16 02:39:51;;;;;;;130.20;46.92;;;3.60;99.90;;;;;;4961983;28;20026;-85
2021/12/16 02:42:22;;;;;;;130.85;49.92;;;3.60;99.90;;;;;;4961505;28;20030;-85
2021/12/16 02:50:19;;;;;;;128.65;45.90;;;3.50;99.90;;;;;;4977753;28;20030;-85
2021/12/16 02:52:45;;;;;;;128.35;48.15;;;3.50;99.90;;;;;;4993844;28;20058;-86
2021/12/16 02:55:15;;;;;;;126.45;47.65;;;3.60;99.90;;;;;;4961455;28;20132;-84
2021/12/16 02:57:51;;;;;;;128.43;46.72;;;3.60;99.90;;;;;;4961224;28;20034;-85
2021/12/16 03:00:18;;;;;;;141.85;50.50;;;3.60;99.90;;;;;;4993946;28;20398;-85
2021/12/16 03:02:49;;;;;;;124.55;46.63;;;3.50;99.90;;;;;;4961874;28;20022;-85
2021/12/16 03:05:18;;;;;;;131.45;47.30;;;3.50;99.90;;;;;;4961364;28;20030;-85
2021/12/16 03:07:44;;;;;;;131.75;48.13;;;3.50;99.90;;;;;;4961542;28;20054;-86
2021/12/16 03:18:06;;;;;;;121.55;48.58;;;3.60;99.90;;;;;;4977403;28;20022;-86
2021/12/16 03:21:06;;;;;;;124.97;47.83;;;3.50;99.90;;;;;;4961432;28;20033;-86
2021/12/16 03:26:42;;;;;;;145.70;50.42;;;3.50;99.90;;;;;;4977742;28;20030;-86
2021/12/16 03:35:25;;;;;;;135.63;47.80;;;3.50;99.90;;;;;;4942426;28;20039;-86
2021/12/16 03:38:14;;;;;;;138.73;50.03;;;3.50;99.90;;;;;;4994418;28;20037;-86
2021/12/16 03:40:40;;;;;;;139.60;49.60;;;3.40;99.90;;;;;;4993269;28;20113;-86
2021/12/16 03:43:13;;;;;;;130.55;49.58;;;3.50;99.90;;;;;;4960845;28;20030;-85
2021/12/16 03:48:53;;;;;;;132.37;49.93;;;3.50;99.90;;;;;;4977520;28;20096;-86
2021/12/16 03:51:36;;;;;;;134.27;50.00;;;3.60;99.90;;;;;;4961572;28;20313;-85
2021/12/16 03:54:27;;;;;;;135.65;47.58;;;3.50;99.90;;;;;;4960772;28;20033;-86
2021/12/16 03:57:01;;;;;;;142.68;51.78;;;3.50;99.90;;;;;;4961590;28;20494;-85
2021/12/16 03:59:29;;;;;;;134.75;50.25;;;3.50;99.90;;;;;;4993336;28;20030;-86
2021/12/16 04:02:31;;;;;;;138.85;50.80;;;3.50;99.90;;;;;;4980440;28;20800;-86
2021/12/16 04:04:59;;;;;;;156.40;58.58;;;3.50;99.90;;;;;;4960700;28;20052;-87
2021/12/16 04:07:30;;;;;;;159.43;55.70;;;3.50;99.90;;;;;;4976888;28;20118;-86
2021/12/16 04:10:18;;;;;;;159.00;52.90;;;3.50;99.90;;;;;;4979011;28;20041;-86
2021/12/16 04:12:50;;;;;;;157.60;49.90;;;3.50;99.90;;;;;;4961386;28;20033;-86
2021/12/16 04:15:17;;;;;;;130.25;46.80;;;3.50;99.90;;;;;;4960929;28;20030;-84
2021/12/16 04:17:48;;;;;;;142.23;50.15;;;3.50;99.90;;;;;;4962081;28;20030;-84
2021/12/16 04:20:16;;;;;;;129.25;47.25;;;3.50;99.90;;;;;;4961044;28;20493;-84
2021/12/16 04:22:44;;;;;;;124.75;48.92;;;3.50;99.90;;;;;;4960897;28;20065;-84
2021/12/16 04:25:21;;;;;;;127.53;48.55;;;3.50;99.90;;;;;;4993148;28;20397;-84
2021/12/16 04:27:51;;;;;;;133.45;49.15;;;3.50;99.90;;;;;;4976508;28;20084;-84
2021/12/16 04:30:18;;;;;;;138.65;48.72;;;3.50;99.90;;;;;;4960846;28;20026;-84
2021/12/16 04:32:46;;;;;;;143.40;48.97;;;3.50;99.90;;;;;;4960500;28;20037;-84
2021/12/16 04:35:16;;;;;;;140.77;50.25;;;3.50;99.90;;;;;;4960460;28;20077;-84
2021/12/16 04:37:46;;;;;;;131.55;50.15;;;3.50;99.90;;;;;;4964025;28;20026;-83
2021/12/16 04:40:16;;;;;;;127.95;47.85;;;3.50;99.90;;;;;;4996648;28;20030;-84
2021/12/16 04:42:47;;;;;;;163.73;55.50;;;3.50;99.90;;;;;;4964976;28;20389;-84
2021/12/16 04:45:17;;;;;;;131.45;50.63;;;3.50;99.90;;;;;;4996142;28;20074;-84
2021/12/16 04:47:44;;;;;;;144.82;53.75;;;3.50;99.90;;;;;;4964548;28;20073;-86
2021/12/16 04:50:12;;;;;;;144.13;51.60;;;3.50;99.90;;;;;;4996363;28;20481;-86
2021/12/16 04:52:38;;;;;;;125.35;47.78;;;3.60;99.90;;;;;;4964432;28;20045;-86
2021/12/16 04:55:28;;;;;;;129.00;47.20;;;3.50;99.90;;;;;;4963690;28;20038;-85
2021/12/16 04:57:54;;;;;;;127.97;47.20;;;3.60;99.90;;;;;;4964380;28;20026;-86
2021/12/16 05:00:23;;;;;;;133.80;49.28;;;3.50;99.90;;;;;;4996096;28;20019;-86
2021/12/16 05:03:01;;;;;;;119.25;44.92;;;3.60;99.90;;;;;;4965536;28;20030;-86
2021/12/16 05:05:53;;;;;;;110.85;43.38;;;3.60;99.90;;;;;;4995028;28;20046;-86
2021/12/16 05:08:19;;;;;;;102.00;40.85;;;3.60;99.90;;;;;;4979415;28;20035;-86
2021/12/16 05:10:56;;;;;;;604.95;247.65;;;3.50;99.90;;;;;;4995991;28;20034;-86
2021/12/16 05:13:25;;;;;;;202.95;76.65;;;3.60;99.90;;;;;;4979344;28;20035;-86
2021/12/16 05:15:52;;;;;;;106.38;42.22;;;3.50;99.90;;;;;;4963634;28;20030;-86
2021/12/16 05:18:26;;;;;;;99.15;38.78;;;3.50;99.90;;;;;;4963749;28;20018;-86
2021/12/16 05:20:57;;;;;;;100.80;38.75;;;3.60;99.90;;;;;;4964127;28;20037;-86
2021/12/16 05:26:26;;;;;;;91.57;36.50;;;3.60;99.90;;;;;;4939548;29;20590;-86
2021/12/16 05:29:22;;;;;;;85.97;34.63;;;3.60;99.90;;;;;;4971769;28;20035;-86
2021/12/16 05:31:49;;;;;;;83.88;33.63;;;3.60;99.90;;;;;;4995280;28;20038;-86
2021/12/16 05:34:16;;;;;;;82.97;33.92;;;3.60;99.90;;;;;;4963009;28;20100;-85
2021/12/16 05:36:42;;;;;;;98.90;38.45;;;3.60;99.90;;;;;;4995136;28;20039;-86
2021/12/16 05:39:10;;;;;;;94.90;36.75;;;3.60;99.90;;;;;;4963125;28;20026;-85
2021/12/16 05:41:45;;;;;;;87.70;36.30;;;3.60;99.90;;;;;;4964000;28;20368;-86
2021/12/16 05:44:11;;;;;;;89.50;37.25;;;3.60;99.90;;;;;;4978578;28;20109;-86
2021/12/16 05:46:38;;;;;;;83.50;35.80;;;3.60;99.90;;;;;;4962717;28;20449;-84
2021/12/16 05:49:07;;;;;;;78.15;31.20;;;3.70;99.90;;;;;;4961222;28;20034;-84
2021/12/16 05:51:48;;;;;;;73.80;31.27;;;3.70;99.90;;;;;;4963868;28;20037;-86
2021/12/16 05:54:15;;;;;;;82.82;31.45;;;3.70;99.90;;;;;;4962200;28;20042;-86
2021/12/16 05:56:48;;;;;;;85.10;34.42;;;3.60;99.90;;;;;;4978933;28;20041;-86
2021/12/16 05:59:18;;;;;;;76.68;31.95;;;3.60;99.90;;;;;;4962750;28;20026;-87
2021/12/16 06:01:46;;;;;;;84.93;35.92;;;3.70;99.90;;;;;;4962625;28;20030;-86
2021/12/16 06:04:14;;;;;;;94.10;36.72;;;3.70;99.90;;;;;;4962532;28;20031;-86
2021/12/16 06:06:40;;;;;;;94.85;37.47;;;3.70;99.90;;;;;;4978632;28;20030;-86
2021/12/16 06:09:08;;;;;;;93.57;37.90;;;3.70;99.90;;;;;;4961817;28;20037;-84
2021/12/16 06:11:38;;;;;;;91.13;41.55;;;3.70;99.90;;;;;;4962209;28;20497;-84
2021/12/16 06:14:24;;;;;;;98.32;40.63;;;3.70;99.90;;;;;;4961928;28;20070;-84
2021/12/16 06:28:09;;;;;;;102.05;40.80;;;3.60;99.90;;;;;;4995040;28;20375;-85
2021/12/16 06:30:44;;;;;;;97.50;39.70;;;3.70;99.90;;;;;;4978264;28;20085;-86
2021/12/16 06:33:14;;;;;;;86.07;38.45;;;3.70;99.90;;;;;;4961405;28;20386;-86
2021/12/16 06:35:40;;;;;;;86.40;35.90;;;3.70;99.90;;;;;;4977705;28;20129;-85
2021/12/16 06:38:09;;;;;;;77.10;33.47;;;3.70;99.90;;;;;;4961776;28;20109;-83
2021/12/16 06:40:47;;;;;;;80.97;35.95;;;3.70;99.90;;;;;;4979754;28;20832;-84
2021/12/16 06:43:32;;;;;;;83.53;35.58;;;3.70;99.90;;;;;;4980334;28;20045;-86
2021/12/16 06:46:01;;;;;;;86.28;34.22;;;3.70;99.90;;;;;;4994143;28;20572;-86
2021/12/16 06:48:31;;;;;;;76.35;34.38;;;3.70;99.90;;;;;;4961479;28;20034;-86
2021/12/16 06:51:02;;;;;;;83.32;36.65;;;3.70;99.90;;;;;;4961600;28;20069;-86
2021/12/16 06:53:45;;;;;;;74.60;33.42;;;3.70;99.90;;;;;;4961310;28;20097;-86
2021/12/16 06:56:52;;;;;;;81.10;35.63;;;3.70;99.90;;;;;;4961609;28;20145;-86
2021/12/16 06:59:27;;;;;;;77.25;35.40;;;3.70;99.90;;;;;;4976018;28;20035;-86
2021/12/16 07:04:31;;;;;;;81.50;36.22;;;3.70;99.90;;;;;;4977653;28;20037;-87
2021/12/16 07:06:57;;;;;;;94.70;39.85;;;3.70;99.90;;;;;;4961081;28;20113;-86
2021/12/16 07:09:23;;;;;;;85.22;36.67;;;3.70;99.90;;;;;;4976754;28;20042;-86
2021/12/16 07:11:56;;;;;;;89.70;38.10;;;3.70;99.90;;;;;;4960510;28;20046;-86
2021/12/16 07:14:34;;;;;;;98.25;40.45;;;3.60;99.90;;;;;;4961148;28;20038;-85
2021/12/16 07:17:03;;;;;;;102.25;41.83;;;3.60;99.90;;;;;;4977120;28;20452;-86
2021/12/16 07:19:29;;;;;;;102.55;41.55;;;3.60;99.90;;;;;;4977312;28;20045;-88
2021/12/16 07:21:54;;;;;;;146.02;59.90;;;3.60;99.90;;;;;;4961090;28;20037;-87
2021/12/16 07:24:20;;;;;;;122.95;51.17;;;3.60;99.90;;;;;;4962034;28;20466;-87
2021/12/16 07:26:47;;;;;;;102.43;44.53;;;3.60;99.90;;;;;;4977975;28;20057;-87
2021/12/16 07:29:14;;;;;;;101.65;43.88;;;3.60;99.90;;;;;;4977573;28;20438;-87
2021/12/16 07:31:39;;;;;;;109.82;49.03;;;3.60;99.90;;;;;;4993601;28;20037;-86
2021/12/16 07:34:10;;;;;;;114.25;51.40;;;3.60;99.90;;;;;;4993738;28;20027;-86
2021/12/16 07:36:38;;;;;;;108.45;48.78;;;3.60;99.90;;;;;;4961582;28;20038;-87
2021/12/16 07:39:10;;;;;;;102.40;45.97;;;3.60;99.90;;;;;;4961128;28;20022;-86
2021/12/16 07:41:38;;;;;;;80.03;35.05;;;3.60;99.90;;;;;;4977328;28;20080;-86
2021/12/16 07:44:50;;;;;;;79.43;33.10;;;3.70;99.90;;;;;;4960717;28;20057;-87
2021/12/16 07:47:16;;;;;;;77.00;32.72;;;3.70;99.90;;;;;;4961275;28;20034;-87
2021/12/16 07:49:44;;;;;;;81.50;34.30;;;3.70;99.90;;;;;;4961614;28;20068;-87
2021/12/16 07:52:14;;;;;;;79.60;33.38;;;3.70;99.90;;;;;;4960921;28;20030;-87
2021/12/16 07:54:40;;;;;;;76.65;33.22;;;3.80;99.90;;;;;;4961286;28;20065;-86
2021/12/16 07:57:06;;;;;;;75.75;33.85;;;3.80;99.90;;;;;;4977632;28;20390;-87
2021/12/16 07:59:34;;;;;;;76.40;34.83;;;3.90;99.90;;;;;;4962164;28;20030;-86
2021/12/16 08:02:00;;;;;;;71.05;33.50;;;3.90;99.90;;;;;;4993952;28;20120;-86
2021/12/16 08:04:29;;;;;;;77.88;34.47;;;4.00;99.90;;;;;;4961057;28;20023;-86
2021/12/16 08:07:04;;;;;;;72.45;33.45;;;4.00;99.90;;;;;;4961505;28;20597;-87
2021/12/16 08:09:35;;;;;;;71.90;32.80;;;3.90;99.90;;;;;;4977718;28;20082;-86
2021/12/16 08:12:05;;;;;;;73.13;31.77;;;4.00;99.90;;;;;;4961905;28;20026;-85
2021/12/16 08:14:31;;;;;;;73.45;33.50;;;4.00;99.90;;;;;;4980355;28;20041;-86
2021/12/16 08:16:56;;;;;;;66.38;31.10;;;4.00;99.90;;;;;;4997599;28;20030;-87
2021/12/16 08:19:23;;;;;;;63.10;29.63;;;4.00;99.90;;;;;;4965569;28;20125;-86
2021/12/16 08:21:49;;;;;;;66.47;30.13;;;4.00;99.90;;;;;;4965478;28;20031;-86
2021/12/16 08:24:16;;;;;;;63.05;30.60;;;4.00;99.90;;;;;;4965099;28;20034;-87
2021/12/16 08:26:46;;;;;;;67.95;31.60;;;4.00;99.90;;;;;;4981623;28;20038;-87
2021/12/16 08:29:13;;;;;;;61.45;30.05;;;4.00;99.90;;;;;;4965247;28;20449;-86
2021/12/16 08:31:39;;;;;;;58.75;28.50;;;4.10;99.90;;;;;;4964785;28;20065;-84
2021/12/16 08:34:05;;;;;;;53.70;26.63;;;4.10;99.90;;;;;;4963871;28;20057;-84
2021/12/16 08:36:32;;;;;;;56.67;25.20;;;4.10;99.90;;;;;;4980035;28;20035;-84
2021/12/16 08:38:59;;;;;;;53.38;26.48;;;4.10;99.90;;;;;;4964165;28;20035;-84
2021/12/16 08:41:31;;;;;;;53.72;27.17;;;4.10;99.90;;;;;;4980328;28;20054;-85
2021/12/16 08:43:58;;;;;;;53.95;27.40;;;4.20;99.90;;;;;;4963243;28;20030;-84
2021/12/16 08:46:27;;;;;;;55.83;27.55;;;4.30;99.90;;;;;;4979999;28;20043;-84
2021/12/16 08:48:53;;;;;;;58.90;27.90;;;4.30;99.90;;;;;;4979396;28;20037;-84
2021/12/16 08:51:22;;;;;;;55.30;28.00;;;4.40;99.90;;;;;;4963503;28;20399;-83
2021/12/16 08:53:49;;;;;;;52.88;28.27;;;4.40;99.90;;;;;;4979288;28;20120;-83
2021/12/16 08:56:17;;;;;;;53.28;28.27;;;4.50;99.90;;;;;;4963561;28;20030;-83
2021/12/16 08:58:43;;;;;;;53.20;26.00;;;4.50;99.90;;;;;;4979845;28;20390;-83
2021/12/16 09:01:13;;;;;;;52.42;26.60;;;4.60;99.90;;;;;;4995860;28;20045;-84
2021/12/16 09:03:39;;;;;;;51.17;26.15;;;4.70;99.90;;;;;;4979542;28;20128;-84
2021/12/16 09:06:12;;;;;;;49.28;24.83;;;4.80;99.90;;;;;;4995804;28;20041;-85
2021/12/16 09:08:38;;;;;;;49.70;25.38;;;4.80;99.90;;;;;;4995756;28;20041;-84
2021/12/16 09:11:07;;;;;;;42.13;22.65;;;4.80;99.90;;;;;;4979740;28;20038;-84
2021/12/16 09:13:35;;;;;;;47.22;25.42;;;4.90;99.90;;;;;;4963102;28;20081;-85
2021/12/16 09:16:28;;;;;;;46.70;24.77;;;4.90;99.90;;;;;;4975838;28;20507;-85
2021/12/16 09:18:55;;;;;;;49.15;24.65;;;5.10;99.90;;;;;;4963144;28;20034;-85
2021/12/16 09:21:43;;;;;;;44.33;23.75;;;5.10;99.90;;;;;;4963013;28;20072;-84
2021/12/16 09:24:14;;;;;;;45.67;23.52;;;5.20;99.90;;;;;;4995339;28;20041;-84
2021/12/16 09:26:42;;;;;;;45.63;25.40;;;5.30;99.90;;;;;;4963388;28;20041;-85
2021/12/16 09:29:08;;;;;;;45.40;25.52;;;5.30;99.90;;;;;;4962962;28;20039;-84
2021/12/16 09:31:34;;;;;;;53.88;26.73;;;5.40;99.90;;;;;;4996512;28;20041;-84
2021/12/16 09:34:07;;;;;;;47.28;24.00;;;5.50;99.90;;;;;;4979031;28;20486;-84
2021/12/16 09:36:34;;;;;;;39.80;21.52;;;5.50;99.90;;;;;;4962497;28;20038;-84
2021/12/16 09:39:01;;;;;;;38.03;21.00;;;5.60;99.90;;;;;;4978842;28;20070;-85
2021/12/16 09:41:28;;;;;;;37.55;20.40;;;5.80;99.90;;;;;;4994979;28;20081;-84
2021/12/16 09:43:56;;;;;;;34.30;18.33;;;5.90;99.90;;;;;;4994442;28;20036;-84
2021/12/16 09:46:24;;;;;;;34.60;18.20;;;6.00;99.90;;;;;;4996009;28;20069;-85
2021/12/16 09:48:52;;;;;;;39.92;22.00;;;6.20;99.90;;;;;;4995100;28;20046;-83
2021/12/16 09:51:22;;;;;;;31.73;19.25;;;6.20;99.90;;;;;;4962723;28;20037;-83
2021/12/16 09:53:51;;;;;;;34.28;17.50;;;6.20;99.90;;;;;;4994369;28;20042;-83
2021/12/16 09:56:18;;;;;;;29.30;17.27;;;6.30;99.90;;;;;;4978363;28;20093;-83
2021/12/16 09:58:47;;;;;;;30.95;17.85;;;6.30;99.90;;;;;;4962261;28;20457;-83
2021/12/16 10:01:15;;;;;;;26.35;16.92;;;6.30;99.90;;;;;;4978598;28;20050;-83
2021/12/16 10:03:42;;;;;;;25.98;16.80;;;6.30;99.90;;;;;;4962677;28;20073;-83
2021/12/16 10:06:08;;;;;;;28.85;15.75;;;6.40;99.90;;;;;;4994673;28;20030;-80
2021/12/16 10:08:35;;;;;;;21.50;15.15;;;6.50;99.90;;;;;;4978573;28;20041;-80
2021/12/16 10:11:03;;;;;;;24.02;13.77;;;6.50;99.90;;;;;;4978283;28;20030;-82
2021/12/16 10:13:43;;;;;;;25.38;16.13;;;6.60;99.90;;;;;;4977693;28;20034;-81
2021/12/16 10:18:56;;;;;;;26.33;14.75;;;6.60;99.90;;;;;;4992895;28;20068;-83
2021/12/16 10:21:23;;;;;;;21.70;13.05;;;6.80;99.90;;;;;;4961878;28;20034;-83
2021/12/16 10:23:49;;;;;;;22.50;12.88;;;6.90;99.90;;;;;;4994797;28;20054;-83
2021/12/16 10:26:18;;;;;;;16.98;11.65;;;6.90;99.90;;;;;;4977662;28;20064;-83
2021/12/16 10:28:47;;;;;;;19.83;12.52;;;7.00;99.90;;;;;;4994036;28;20091;-82
2021/12/16 10:31:44;;;;;;;18.67;11.93;;;7.00;99.90;;;;;;4993626;28;20046;-83
2021/12/16 10:34:10;;;;;;;18.25;11.45;;;7.00;99.90;;;;;;4960707;28;20072;-82
2021/12/16 10:36:45;;;;;;;18.23;12.32;;;7.00;99.90;;;;;;4977262;28;20030;-82
2021/12/16 10:39:26;;;;;;;22.30;13.10;;;7.00;99.90;;;;;;4960216;28;20053;-83
2021/12/16 10:41:58;;;;;;;22.27;14.17;;;7.00;99.90;;;;;;4977491;28;20088;-82
2021/12/16 10:44:28;;;;;;;20.98;12.57;;;6.90;99.90;;;;;;4960892;28;20064;-82
2021/12/16 10:47:01;;;;;;;22.35;12.68;;;6.90;99.90;;;;;;4961545;28;20054;-82
2021/12/16 10:49:31;;;;;;;21.55;12.93;;;6.80;99.90;;;;;;4961113;28;20030;-82
2021/12/16 10:52:10;;;;;;;19.85;12.68;;;6.90;99.90;;;;;;4961161;28;20398;-82
2021/12/16 10:54:44;;;;;;;22.60;11.48;;;6.90;99.90;;;;;;4977020;28;20041;-82
2021/12/16 10:57:12;;;;;;;25.05;14.05;;;7.00;99.90;;;;;;4993571;28;20030;-82
2021/12/16 10:59:46;;;;;;;19.73;12.20;;;6.90;99.90;;;;;;4993553;28;20118;-82
2021/12/16 11:02:21;;;;;;;19.02;12.02;;;7.00;99.90;;;;;;4976940;28;20058;-82
2021/12/16 11:04:47;;;;;;;19.27;11.95;;;6.90;99.90;;;;;;4960871;28;20035;-82
2021/12/16 11:07:21;;;;;;;23.00;14.48;;;6.80;99.90;;;;;;4977064;28;20053;-84
2021/12/16 11:10:11;;;;;;;26.92;12.70;;;6.70;99.90;;;;;;4993856;28;20089;-82
2021/12/16 11:12:50;;;;;;;20.50;12.70;;;6.60;99.90;;;;;;4993184;28;20030;-83
2021/12/16 11:15:28;;;;;;;23.63;14.80;;;6.50;99.90;;;;;;4994334;28;20030;-83
2021/12/16 11:18:11;;;;;;;22.50;14.02;;;6.50;99.90;;;;;;4960268;28;20120;-83
2021/12/16 11:20:43;;;;;;;22.63;14.77;;;6.60;99.90;;;;;;4976848;28;20092;-82
2021/12/16 11:23:12;;;;;;;24.85;15.60;;;6.60;99.90;;;;;;4992249;28;20041;-83
2021/12/16 11:25:59;;;;;;;30.38;17.23;;;6.50;99.90;;;;;;4960538;28;20034;-82
2021/12/16 11:28:33;;;;;;;42.10;21.33;;;6.50;99.90;;;;;;4960306;28;20464;-83
2021/12/16 11:31:06;;;;;;;24.17;15.90;;;6.60;99.90;;;;;;4960697;28;20104;-83
2021/12/16 11:33:49;;;;;;;26.95;15.27;;;6.80;99.90;;;;;;4976484;28;20058;-83
2021/12/16 11:36:23;;;;;;;21.60;13.90;;;6.90;99.90;;;;;;4960375;28;20046;-83
2021/12/16 11:38:51;;;;;;;19.85;13.30;;;7.00;99.90;;;;;;4960519;28;20547;-83
2021/12/16 11:41:36;;;;;;;25.58;14.35;;;7.20;99.90;;;;;;4976695;28;20094;-83
2021/12/16 11:44:14;;;;;;;24.48;13.13;;;7.30;99.90;;;;;;4960455;28;20030;-84
2021/12/16 11:46:46;;;;;;;21.10;13.13;;;7.60;99.90;;;;;;4991879;28;20478;-84
2021/12/16 11:49:26;;;;;;;20.95;13.35;;;8.00;99.90;;;;;;4960378;28;20030;-83
2021/12/16 11:51:52;;;;;;;23.55;12.90;;;8.40;99.90;;;;;;4994178;28;20041;-84
2021/12/16 11:54:57;;;;;;;20.10;13.82;;;8.30;99.90;;;;;;4960216;28;20022;-84
2021/12/16 11:57:36;;;;;;;25.42;14.23;;;8.00;99.90;;;;;;4960354;28;20556;-83
2021/12/16 12:00:22;;;;;;;25.15;14.20;;;7.70;99.90;;;;;;4960691;28;20038;-84
2021/12/16 12:03:02;;;;;;;18.17;11.77;;;7.50;99.90;;;;;;4960423;28;20715;-84
2021/12/16 12:05:30;;;;;;;24.13;13.32;;;7.50;99.90;;;;;;4958397;28;20137;-84
2021/12/16 12:08:23;;;;;;;18.83;9.65;;;7.50;99.90;;;;;;4975931;28;20482;-84
2021/12/16 12:10:59;;;;;;;14.73;9.02;;;7.70;99.90;;;;;;4992381;28;20041;-84
2021/12/16 12:13:38;;;;;;;19.17;9.90;;;7.90;99.90;;;;;;4960137;28;20096;-84
2021/12/16 12:16:35;;;;;;;24.25;12.43;;;8.30;99.90;;;;;;4975650;28;20034;-85
2021/12/16 12:19:08;;;;;;;18.52;9.80;;;8.50;99.90;;;;;;4992329;28;20026;-84
2021/12/16 12:21:36;;;;;;;23.42;11.43;;;8.60;99.90;;;;;;4959860;28;20482;-84
2021/12/16 12:24:14;;;;;;;24.80;11.43;;;8.60;99.90;;;;;;4959391;28;20121;-85
2021/12/16 12:26:55;;;;;;;13.85;9.25;;;8.50;99.90;;;;;;4959966;28;20521;-84
2021/12/16 12:29:29;;;;;;;13.27;8.35;;;8.60;99.90;;;;;;4976086;28;20092;-84
2021/12/16 12:32:06;;;;;;;20.23;8.93;;;8.40;99.90;;;;;;4975930;28;20132;-85
2021/12/16 12:34:35;;;;;;;16.75;10.00;;;8.30;99.90;;;;;;4975966;28;20046;-84
2021/12/16 12:37:05;;;;;;;25.30;9.35;;;8.40;99.90;;;;;;4991815;28;20034;-85
2021/12/16 12:39:37;;;;;;;21.48;9.23;;;8.40;99.90;;;;;;4960049;28;20049;-85
2021/12/16 12:42:06;;;;;;;17.10;9.77;;;8.50;99.90;;;;;;4960318;28;20125;-85
2021/12/16 12:44:32;;;;;;;16.90;8.98;;;8.60;99.90;;;;;;4992505;28;20025;-84
2021/12/16 12:47:05;;;;;;;20.83;11.30;;;8.70;99.90;;;;;;4959434;28;20038;-84
2021/12/16 12:49:31;;;;;;;13.98;9.43;;;8.80;99.90;;;;;;4975787;28;20035;-85
2021/12/16 12:52:09;;;;;;;23.23;13.10;;;8.70;99.90;;;;;;4960012;28;20060;-84
2021/12/16 12:54:36;;;;;;;17.27;11.88;;;8.50;99.90;;;;;;4959672;28;20494;-84
2021/12/16 12:57:17;;;;;;;20.15;9.90;;;8.40;99.90;;;;;;4960095;28;20533;-85
2021/12/16 12:59:43;;;;;;;;;;;8.30;99.90;;;;;;4995911;28;20034;-85
2021/12/16 13:02:24;;;;;;;17.38;9.68;;;8.10;99.90;;;;;;4963654;28;19909;-84
2021/12/16 13:04:59;;;;;;;20.70;12.77;;;8.00;99.90;;;;;;4963293;28;20030;-84
2021/12/16 13:07:36;;;;;;;23.90;13.38;;;8.00;99.90;;;;;;4963625;28;20041;-84
2021/12/16 13:10:21;;;;;;;19.23;11.15;;;8.10;99.90;;;;;;4995606;28;20085;-84
2021/12/16 13:15:35;;;;;;;19.83;12.18;;;8.10;99.90;;;;;;4996613;28;20023;-84
2021/12/16 13:23:41;;;;;;;16.42;11.43;;;8.00;99.90;;;;;;4978952;28;20042;-84
2021/12/16 13:29:07;;;;;;;20.48;11.50;;;7.90;99.90;;;;;;4979383;28;20096;-83
2021/12/16 13:31:46;;;;;;;21.58;12.88;;;7.90;99.90;;;;;;4979249;28;20072;-84
2021/12/16 13:34:26;;;;;;;18.63;11.93;;;7.80;99.90;;;;;;4978432;28;20552;-84
2021/12/16 13:36:56;;;;;;;18.50;11.45;;;7.90;99.90;;;;;;4962560;28;20602;-84
2021/12/16 13:39:27;;;;;;;26.33;12.73;;;8.00;99.90;;;;;;4962518;28;20034;-85
2021/12/16 13:42:02;;;;;;;23.52;12.93;;;8.10;99.90;;;;;;4962620;28;20030;-84
2021/12/16 13:44:50;;;;;;;18.90;12.02;;;8.10;99.90;;;;;;4962085;28;20038;-84
2021/12/16 13:47:42;;;;;;;31.40;15.48;;;8.00;99.90;;;;;;4962254;28;20120;-85
2021/12/16 14:05:15;;;;;;;26.40;12.48;;;7.50;99.90;;;;;;4979053;28;20056;-87
2021/12/16 14:07:55;;;;;;;22.30;12.43;;;7.40;99.90;;;;;;4995272;28;20069;-86
2021/12/16 14:10:47;;;;;;;23.17;13.95;;;7.30;99.90;;;;;;4962354;28;20437;-87
2021/12/16 14:45:31;;;;;;;26.20;14.63;;;6.90;99.90;;;;;;4960050;28;20067;-87
2021/12/16 14:48:31;;;;;;;35.22;15.90;;;6.90;99.90;;;;;;4962384;28;20630;-86
2021/12/16 14:51:03;;;;;;;18.75;12.98;;;6.90;99.90;;;;;;4978228;28;20042;-87
2021/12/16 14:53:49;;;;;;;24.38;14.13;;;6.90;99.90;;;;;;4994161;28;20042;-87
2021/12/16 14:56:20;;;;;;;22.05;13.13;;;6.80;99.90;;;;;;4978284;28;20482;-87
2021/12/16 14:58:56;;;;;;;25.50;13.88;;;6.80;99.90;;;;;;4995275;28;20065;-87
2021/12/16 15:01:34;;;;;;;20.85;12.90;;;6.70;99.90;;;;;;4960354;28;20085;-86
2021/12/16 15:04:34;;;;;;;27.33;14.00;;;6.60;99.90;;;;;;4977621;28;20034;-86
2021/12/16 15:07:06;;;;;;;39.92;14.68;;;6.60;99.90;;;;;;4993544;28;20034;-87
2021/12/16 15:09:35;;;;;;;25.17;16.42;;;6.60;99.90;;;;;;4961124;28;20038;-87
2021/12/16 15:12:12;;;;;;;28.58;16.70;;;6.50;99.90;;;;;;4961793;28;20030;-87
2021/12/16 15:37:15;;;;;;;32.28;20.92;;;6.20;99.90;;;;;;4976964;28;20031;-87
2021/12/16 15:45:13;;;;;;;29.95;19.58;;;6.10;99.90;;;;;;4977750;28;20022;-87
2021/12/16 15:47:54;;;;;;;30.92;19.80;;;6.10;99.90;;;;;;4978408;28;20045;-88
2021/12/16 15:50:28;;;;;;;34.97;21.25;;;6.10;99.90;;;;;;4962335;28;20049;-88
2021/12/16 15:52:55;;;;;;;34.55;20.45;;;6.00;99.90;;;;;;4961399;28;20490;-87
2021/12/16 15:55:25;;;;;;;39.00;19.45;;;6.00;99.90;;;;;;4961021;28;20066;-87
2021/12/16 15:57:51;;;;;;;33.60;20.75;;;6.00;99.90;;;;;;4960746;28;20092;-87
2021/12/16 16:00:21;;;;;;;41.75;21.25;;;6.00;99.90;;;;;;4977181;28;20050;-87
2021/12/16 16:02:47;;;;;;;33.95;20.52;;;6.00;99.90;;;;;;4961094;28;20490;-87
2021/12/16 16:05:14;;;;;;;38.85;21.50;;;5.90;99.90;;;;;;4960023;28;20069;-87
2021/12/16 16:07:41;;;;;;;39.20;22.63;;;5.90;99.90;;;;;;4961591;28;20474;-87
2021/12/16 16:10:24;;;;;;;40.60;23.90;;;5.80;99.90;;;;;;4961308;28;20050;-88
2021/12/16 16:12:50;;;;;;;42.83;25.27;;;5.80;99.90;;;;;;4961181;28;20496;-87
2021/12/16 16:15:22;;;;;;;49.45;26.55;;;5.80;99.90;;;;;;4960921;28;20027;-88
2021/12/16 16:18:11;;;;;;;55.53;30.30;;;5.80;99.90;;;;;;4976494;28;20076;-87
2021/12/16 16:20:39;;;;;;;59.28;33.90;;;5.70;99.90;;;;;;4977291;28;20026;-87
2021/12/16 16:23:08;;;;;;;74.47;38.13;;;5.60;99.90;;;;;;4976817;28;20034;-88
2021/12/16 16:25:35;;;;;;;68.05;38.42;;;5.50;99.90;;;;;;4960658;28;20031;-87
2021/12/16 16:28:02;;;;;;;68.28;38.25;;;5.50;99.90;;;;;;4959942;28;20525;-87
2021/12/16 16:30:29;;;;;;;70.85;37.20;;;5.40;99.90;;;;;;4992598;28;20127;-87
2021/12/16 16:33:17;;;;;;;74.20;38.63;;;5.30;99.90;;;;;;4996163;28;20498;-87
2021/12/16 16:35:48;;;;;;;80.45;40.65;;;5.20;99.90;;;;;;4996428;28;20101;-87
2021/12/16 16:38:25;;;;;;;79.15;40.65;;;5.10;99.90;;;;;;4980750;28;20039;-88
2021/12/16 16:40:54;;;;;;;72.18;37.35;;;4.90;99.90;;;;;;4964419;28;20038;-88
2021/12/16 16:43:25;;;;;;;71.18;35.28;;;4.80;99.90;;;;;;4980452;28;20044;-88
2021/12/16 16:45:53;;;;;;;74.93;37.88;;;4.70;99.90;;;;;;4964512;28;20044;-87
2021/12/16 16:49:25;;;;;;;69.30;34.22;;;4.60;99.90;;;;;;4998087;28;20445;-88
2021/12/16 16:51:19;;;;;;;71.70;35.58;;;4.50;99.90;;;;;;4976005;28;20049;-88
2021/12/16 16:54:18;;;;;;;84.57;41.47;;;4.20;99.90;;;;;;4980015;28;20029;-88
2021/12/16 16:56:48;;;;;;;83.45;40.80;;;4.10;99.90;;;;;;4977874;28;20046;-88
2021/12/16 16:59:23;;;;;;;77.68;37.60;;;3.90;99.90;;;;;;4997712;28;20030;-88
2021/12/16 17:01:49;;;;;;;85.63;44.10;;;3.70;99.90;;;;;;4979848;28;20037;-88
2021/12/16 17:04:16;;;;;;;93.05;44.53;;;3.60;99.90;;;;;;4963656;28;20062;-88
2021/12/16 17:06:49;;;;;;;91.43;45.67;;;3.40;99.90;;;;;;4980065;28;20066;-88
2021/12/16 17:09:15;;;;;;;96.65;44.72;;;3.40;99.90;;;;;;4964232;28;20030;-88
2021/12/16 17:11:44;;;;;;;89.30;43.10;;;3.30;99.90;;;;;;4996556;28;20182;-88
2021/12/16 17:14:18;;;;;;;85.35;40.97;;;3.20;99.90;;;;;;4965510;28;20038;-86